Weather at Moss Airport, Rygge

Public forecast

Using degrees Celsius for public forecast. Weather courtesy of forecast.io.

Current aviation weather report (METAR) for Moss Airport, Rygge

2024/05/28 10:20 (retrieved 21 minutes ago)

ENRY 281020Z 10004KT 9999 FEW032TCU 20/11 Q1015 NOSIG

Aviation forecast (TAF) for Moss Airport, Rygge

2024/05/28 06:37 (retrieved 4 hours ago)

TAF ENRY 280500Z 2806/2906 14007KT 9999 SCT015 PROB40 2806/2808 BKN012 BECMG 2811/2813 30010KT TEMPO 2812/2815 SCT030TCU BKN040 TEMPO 2815/2819 02015G25KT 4000 TSRA BKN012 BKN025CB BECMG 2819/2821 16010KT PROB40 2819/2904 BKN008